Flint, MI

2:13 PM EST on January 17, 2017 (GMT -0500)
KC8EEL-FLINT | | Change Station

Elev 756 ft 42.99 °N, 83.69 °W | Updated 12 seconds ago

Fog
Fog
37.2 °F
Feels Like 37 °F
N
0.0
Wind Variable Wind from SW

Today
High -- | Low -- °F
--% Chance of Precip.
Yesterday
High -- | Low -- °F
Precip. -- in
Pressure 29.78 in
Visibility 0.2 miles
Clouds
Windchill 37 °F
Dew Point 35 °F
Humidity 91%
Rainfall 0.29 in
Snow Depth Not available.
8:02 AM 5:28 PM
Waning Gibbous, 70% visible
METAR KFNT 171853Z 28003KT 1/4SM R09/1400V2000FT FG VV002 03/03 A2976 RMK AO2 SLP084 T00280028
Pressure 29.78 in
Visibility 0.2 miles
Clouds
Windchill 37 °F
Dew Point 35 °F
Humidity 91%
Rainfall 0.29 in
Snow Depth Not available.
8:02 AM 5:28 PM
Waning Gibbous, 70% visible
METAR KFNT 171853Z 28003KT 1/4SM R09/1400V2000FT FG VV002 03/03 A2976 RMK AO2 SLP084 T00280028

Get Your Daily Forecast Email!

Thanks for signing up!

Be on the lookout for a verification email in your inbox.

You'll start receiving the daily forecast at 8 AM.

×

10-Day Weather Forecast

Almanac

Astronomy

Jan. 17, 2017 Rise Set
Actual Time
Civil Twilight
Nautical Twilight
Astronomical Twilight
Moon
Length of Visible Light
Length of Day
Tomorrow will be .
, % of the Moon is Illuminated

Today's Extremes

State Highs State Lows

Community

WunderPhotos

Upload Photos

1,962,540 photos uploaded!

WunderBlog® & News

Nearby

Air Quality

  Air Quality AQ Index Pollutant
Not available.

Snow Depth

Station Depth Elevation

Earthquake Activity

City Distance Mag. Time & Date
Minimum magnitude displayed is 2.5.

Coastal Water Temperatures

Place Temperature

Stations

Nearby Weather Stations

Station Location Temp. Windchill Dew Point Humidity Wind Precip. Elev Updated Type
                   

Watches & Warnings

There are currently no watches in effect.